sensor_id;sensor_type;location;lat;lon;timestamp;P1;P2;P0
49064;PMS5003;34876;51.464;-0.150;2023-12-04T00:01:59;10;8;
49064;PMS5003;34876;51.464;-0.150;2023-12-04T00:04:28;9;9;
49064;PMS5003;34876;51.464;-0.150;2023-12-04T00:06:59;12;7;
49064;PMS5003;34876;51.464;-0.150;2023-12-04T00:09:28;8;8;
49064;PMS5003;34876;51.464;-0.150;2023-12-04T00:11:58;9;8;
49064;PMS5003;34876;51.464;-0.150;2023-12-04T00:14:29;6;6;
49064;PMS5003;34876;51.464;-0.150;2023-12-04T00:16:59;6;6;
49064;PMS5003;34876;51.464;-0.150;2023-12-04T00:19:29;7;7;
49064;PMS5003;34876;51.464;-0.150;2023-12-04T00:21:59;7;6;
49064;PMS5003;34876;51.464;-0.150;2023-12-04T00:24:28;7;7;
49064;PMS5003;34876;51.464;-0.150;2023-12-04T00:26:58;5;5;
49064;PMS5003;34876;51.464;-0.150;2023-12-04T00:29:27;8;8;
49064;PMS5003;34876;51.464;-0.150;2023-12-04T00:31:55;9;8;
49064;PMS5003;34876;51.464;-0.150;2023-12-04T00:34:25;11;8;
49064;PMS5003;34876;51.464;-0.150;2023-12-04T00:36:54;9;8;
49064;PMS5003;34876;51.464;-0.150;2023-12-04T00:39:24;6;5;
49064;PMS5003;34876;51.464;-0.150;2023-12-04T00:41:55;8;7;
49064;PMS5003;34876;51.464;-0.150;2023-12-04T00:44:31;6;6;
49064;PMS5003;34876;51.464;-0.150;2023-12-04T00:47:01;10;8;
49064;PMS5003;34876;51.464;-0.150;2023-12-04T00:49:30;11;7;
49064;PMS5003;34876;51.464;-0.150;2023-12-04T00:52:06;6;6;
49064;PMS5003;34876;51.464;-0.150;2023-12-04T00:54:35;5;5;
49064;PMS5003;34876;51.464;-0.150;2023-12-04T00:57:06;8;8;
49064;PMS5003;34876;51.464;-0.150;2023-12-04T00:59:40;8;7;
49064;PMS5003;34876;51.464;-0.150;2023-12-04T01:03:30;6;6;
49064;PMS5003;34876;51.464;-0.150;2023-12-04T01:06:01;7;7;
49064;PMS5003;34876;51.464;-0.150;2023-12-04T01:08:32;5;5;
49064;PMS5003;34876;51.464;-0.150;2023-12-04T01:11:01;7;7;
49064;PMS5003;34876;51.464;-0.150;2023-12-04T01:13:30;8;8;
49064;PMS5003;34876;51.464;-0.150;2023-12-04T01:16:00;6;5;
49064;PMS5003;34876;51.464;-0.150;2023-12-04T01:18:30;4;4;
49064;PMS5003;34876;51.464;-0.150;2023-12-04T01:20:58;4;4;
49064;PMS5003;34876;51.464;-0.150;2023-12-04T01:23:27;8;8;
49064;PMS5003;34876;51.464;-0.150;2023-12-04T01:25:57;6;6;
49064;PMS5003;34876;51.464;-0.150;2023-12-04T01:28:27;4;4;
49064;PMS5003;34876;51.464;-0.150;2023-12-04T01:30:56;7;7;
49064;PMS5003;34876;51.464;-0.150;2023-12-04T01:33:26;6;6;
49064;PMS5003;34876;51.464;-0.150;2023-12-04T01:35:55;6;6;
49064;PMS5003;34876;51.464;-0.150;2023-12-04T01:38:26;5;5;
49064;PMS5003;34876;51.464;-0.150;2023-12-04T01:40:54;5;5;
49064;PMS5003;34876;51.464;-0.150;2023-12-04T01:43:24;5;5;
49064;PMS5003;34876;51.464;-0.150;2023-12-04T01:45:55;5;5;
49064;PMS5003;34876;51.464;-0.150;2023-12-04T01:48:26;3;3;
49064;PMS5003;34876;51.464;-0.150;2023-12-04T01:50:58;5;5;
49064;PMS5003;34876;51.464;-0.150;2023-12-04T01:53:31;6;6;
49064;PMS5003;34876;51.464;-0.150;2023-12-04T01:56:02;4;4;
49064;PMS5003;34876;51.464;-0.150;2023-12-04T01:58:32;5;4;
49064;PMS5003;34876;51.464;-0.150;2023-12-04T02:01:09;3;3;
49064;PMS5003;34876;51.464;-0.150;2023-12-04T02:03:40;6;6;
49064;PMS5003;34876;51.464;-0.150;2023-12-04T02:06:15;6;6;
49064;PMS5003;34876;51.464;-0.150;2023-12-04T02:08:45;4;4;
49064;PMS5003;34876;51.464;-0.150;2023-12-04T02:11:19;3;3;
49064;PMS5003;34876;51.464;-0.150;2023-12-04T02:13:49;7;5;
49064;PMS5003;34876;51.464;-0.150;2023-12-04T02:16:18;5;5;
49064;PMS5003;34876;51.464;-0.150;2023-12-04T02:18:47;7;4;
49064;PMS5003;34876;51.464;-0.150;2023-12-04T02:21:17;3;3;
49064;PMS5003;34876;51.464;-0.150;2023-12-04T02:23:48;5;4;
49064;PMS5003;34876;51.464;-0.150;2023-12-04T02:26:18;4;4;
49064;PMS5003;34876;51.464;-0.150;2023-12-04T02:28:58;3;3;
49064;PMS5003;34876;51.464;-0.150;2023-12-04T02:31:39;5;5;
49064;PMS5003;34876;51.464;-0.150;2023-12-04T02:34:10;6;6;
49064;PMS5003;34876;51.464;-0.150;2023-12-04T02:36:42;4;4;
49064;PMS5003;34876;51.464;-0.150;2023-12-04T02:39:12;4;4;
49064;PMS5003;34876;51.464;-0.150;2023-12-04T02:41:42;3;3;
49064;PMS5003;34876;51.464;-0.150;2023-12-04T02:44:16;2;2;
49064;PMS5003;34876;51.464;-0.150;2023-12-04T02:46:46;5;5;
49064;PMS5003;34876;51.464;-0.150;2023-12-04T02:49:16;5;3;
49064;PMS5003;34876;51.464;-0.150;2023-12-04T02:51:46;5;5;
49064;PMS5003;34876;51.464;-0.150;2023-12-04T02:54:15;4;4;
49064;PMS5003;34876;51.464;-0.150;2023-12-04T02:56:45;3;3;
49064;PMS5003;34876;51.464;-0.150;2023-12-04T02:59:15;4;3;
49064;PMS5003;34876;51.464;-0.150;2023-12-04T03:01:45;6;5;
49064;PMS5003;34876;51.464;-0.150;2023-12-04T03:04:14;3;2;
49064;PMS5003;34876;51.464;-0.150;2023-12-04T03:06:43;2;2;
49064;PMS5003;34876;51.464;-0.150;2023-12-04T03:09:13;5;5;
49064;PMS5003;34876;51.464;-0.150;2023-12-04T03:11:42;4;4;
49064;PMS5003;34876;51.464;-0.150;2023-12-04T03:14:11;5;4;
49064;PMS5003;34876;51.464;-0.150;2023-12-04T03:16:40;6;6;
49064;PMS5003;34876;51.464;-0.150;2023-12-04T03:19:09;5;5;
49064;PMS5003;34876;51.464;-0.150;2023-12-04T03:21:39;5;5;
49064;PMS5003;34876;51.464;-0.150;2023-12-04T03:24:09;8;5;
49064;PMS5003;34876;51.464;-0.150;2023-12-04T03:26:38;4;3;
49064;PMS5003;34876;51.464;-0.150;2023-12-04T03:29:09;4;4;
49064;PMS5003;34876;51.464;-0.150;2023-12-04T03:31:38;2;2;
49064;PMS5003;34876;51.464;-0.150;2023-12-04T03:34:08;6;6;
49064;PMS5003;34876;51.464;-0.150;2023-12-04T03:36:37;3;3;
49064;PMS5003;34876;51.464;-0.150;2023-12-04T03:39:07;9;7;
49064;PMS5003;34876;51.464;-0.150;2023-12-04T03:41:36;4;4;
49064;PMS5003;34876;51.464;-0.150;2023-12-04T03:44:05;4;4;
49064;PMS5003;34876;51.464;-0.150;2023-12-04T03:46:35;3;3;
49064;PMS5003;34876;51.464;-0.150;2023-12-04T03:49:04;5;4;
49064;PMS5003;34876;51.464;-0.150;2023-12-04T03:51:34;5;5;
49064;PMS5003;34876;51.464;-0.150;2023-12-04T03:54:03;7;7;
49064;PMS5003;34876;51.464;-0.150;2023-12-04T03:56:32;5;5;
49064;PMS5003;34876;51.464;-0.150;2023-12-04T03:59:01;5;5;
49064;PMS5003;34876;51.464;-0.150;2023-12-04T04:01:31;5;4;
49064;PMS5003;34876;51.464;-0.150;2023-12-04T04:04:00;5;4;
49064;PMS5003;34876;51.464;-0.150;2023-12-04T04:06:29;4;4;
49064;PMS5003;34876;51.464;-0.150;2023-12-04T04:08:58;4;4;
49064;PMS5003;34876;51.464;-0.150;2023-12-04T04:11:28;4;4;
49064;PMS5003;34876;51.464;-0.150;2023-12-04T04:13:57;5;5;
49064;PMS5003;34876;51.464;-0.150;2023-12-04T04:16:27;5;4;
49064;PMS5003;34876;51.464;-0.150;2023-12-04T04:18:56;7;7;
49064;PMS5003;34876;51.464;-0.150;2023-12-04T04:21:25;7;4;
49064;PMS5003;34876;51.464;-0.150;2023-12-04T04:23:54;9;7;
49064;PMS5003;34876;51.464;-0.150;2023-12-04T04:26:23;5;3;
49064;PMS5003;34876;51.464;-0.150;2023-12-04T04:28:52;3;3;
49064;PMS5003;34876;51.464;-0.150;2023-12-04T04:31:21;5;4;
49064;PMS5003;34876;51.464;-0.150;2023-12-04T04:33:50;3;3;
49064;PMS5003;34876;51.464;-0.150;2023-12-04T04:36:19;5;5;
49064;PMS5003;34876;51.464;-0.150;2023-12-04T04:38:54;3;3;
49064;PMS5003;34876;51.464;-0.150;2023-12-04T04:41:23;7;4;
49064;PMS5003;34876;51.464;-0.150;2023-12-04T04:43:52;4;4;
49064;PMS5003;34876;51.464;-0.150;2023-12-04T04:46:22;4;3;
49064;PMS5003;34876;51.464;-0.150;2023-12-04T04:48:51;4;3;
49064;PMS5003;34876;51.464;-0.150;2023-12-04T04:51:21;5;5;
49064;PMS5003;34876;51.464;-0.150;2023-12-04T04:53:50;3;3;
49064;PMS5003;34876;51.464;-0.150;2023-12-04T04:56:19;4;4;
49064;PMS5003;34876;51.464;-0.150;2023-12-04T04:58:48;4;4;
49064;PMS5003;34876;51.464;-0.150;2023-12-04T05:01:18;4;4;
49064;PMS5003;34876;51.464;-0.150;2023-12-04T05:03:47;4;4;
49064;PMS5003;34876;51.464;-0.150;2023-12-04T05:06:17;3;3;
49064;PMS5003;34876;51.464;-0.150;2023-12-04T05:08:46;3;3;
49064;PMS5003;34876;51.464;-0.150;2023-12-04T05:11:16;3;3;
49064;PMS5003;34876;51.464;-0.150;2023-12-04T05:13:45;3;3;
49064;PMS5003;34876;51.464;-0.150;2023-12-04T05:16:15;5;3;
49064;PMS5003;34876;51.464;-0.150;2023-12-04T05:18:44;3;3;
49064;PMS5003;34876;51.464;-0.150;2023-12-04T05:21:13;4;4;
49064;PMS5003;34876;51.464;-0.150;2023-12-04T05:23:43;2;2;
49064;PMS5003;34876;51.464;-0.150;2023-12-04T05:26:12;2;2;
49064;PMS5003;34876;51.464;-0.150;2023-12-04T05:28:41;3;3;
49064;PMS5003;34876;51.464;-0.150;2023-12-04T05:31:10;2;2;
49064;PMS5003;34876;51.464;-0.150;2023-12-04T05:33:39;4;4;
49064;PMS5003;34876;51.464;-0.150;2023-12-04T05:36:09;4;4;
49064;PMS5003;34876;51.464;-0.150;2023-12-04T05:38:38;5;3;
49064;PMS5003;34876;51.464;-0.150;2023-12-04T05:41:07;3;3;
49064;PMS5003;34876;51.464;-0.150;2023-12-04T05:43:36;4;3;
49064;PMS5003;34876;51.464;-0.150;2023-12-04T05:46:06;3;3;
49064;PMS5003;34876;51.464;-0.150;2023-12-04T05:48:35;3;3;
49064;PMS5003;34876;51.464;-0.150;2023-12-04T05:51:05;1;1;
49064;PMS5003;34876;51.464;-0.150;2023-12-04T05:53:34;3;3;
49064;PMS5003;34876;51.464;-0.150;2023-12-04T05:56:04;2;2;
49064;PMS5003;34876;51.464;-0.150;2023-12-04T05:58:34;2;2;
49064;PMS5003;34876;51.464;-0.150;2023-12-04T06:01:03;4;4;
49064;PMS5003;34876;51.464;-0.150;2023-12-04T06:03:33;3;3;
49064;PMS5003;34876;51.464;-0.150;2023-12-04T06:06:03;4;3;
49064;PMS5003;34876;51.464;-0.150;2023-12-04T06:08:32;5;5;
49064;PMS5003;34876;51.464;-0.150;2023-12-04T06:11:02;3;3;
49064;PMS5003;34876;51.464;-0.150;2023-12-04T06:13:31;5;3;
49064;PMS5003;34876;51.464;-0.150;2023-12-04T06:16:01;1;1;
49064;PMS5003;34876;51.464;-0.150;2023-12-04T06:18:30;2;2;
49064;PMS5003;34876;51.464;-0.150;2023-12-04T06:21:00;2;2;
49064;PMS5003;34876;51.464;-0.150;2023-12-04T06:23:29;2;2;
49064;PMS5003;34876;51.464;-0.150;2023-12-04T06:25:59;2;2;
49064;PMS5003;34876;51.464;-0.150;2023-12-04T06:28:29;3;3;
49064;PMS5003;34876;51.464;-0.150;2023-12-04T06:30:59;3;3;
49064;PMS5003;34876;51.464;-0.150;2023-12-04T06:33:30;3;3;
49064;PMS5003;34876;51.464;-0.150;2023-12-04T06:36:00;4;3;
49064;PMS5003;34876;51.464;-0.150;2023-12-04T06:38:31;4;3;
49064;PMS5003;34876;51.464;-0.150;2023-12-04T06:41:01;5;4;
49064;PMS5003;34876;51.464;-0.150;2023-12-04T06:43:31;4;4;
49064;PMS5003;34876;51.464;-0.150;2023-12-04T06:46:01;3;3;
49064;PMS5003;34876;51.464;-0.150;2023-12-04T06:48:31;3;3;
49064;PMS5003;34876;51.464;-0.150;2023-12-04T06:51:01;2;2;
49064;PMS5003;34876;51.464;-0.150;2023-12-04T06:53:31;3;3;
49064;PMS5003;34876;51.464;-0.150;2023-12-04T06:56:00;3;3;
49064;PMS5003;34876;51.464;-0.150;2023-12-04T06:58:30;2;2;
49064;PMS5003;34876;51.464;-0.150;2023-12-04T07:00:59;3;3;
49064;PMS5003;34876;51.464;-0.150;2023-12-04T07:03:29;2;2;
49064;PMS5003;34876;51.464;-0.150;2023-12-04T07:05:58;3;3;
49064;PMS5003;34876;51.464;-0.150;2023-12-04T07:08:27;2;2;
49064;PMS5003;34876;51.464;-0.150;2023-12-04T07:10:56;2;2;
49064;PMS5003;34876;51.464;-0.150;2023-12-04T07:13:26;3;3;
49064;PMS5003;34876;51.464;-0.150;2023-12-04T07:15:55;2;2;
49064;PMS5003;34876;51.464;-0.150;2023-12-04T07:18:26;2;1;
49064;PMS5003;34876;51.464;-0.150;2023-12-04T07:20:55;2;2;
49064;PMS5003;34876;51.464;-0.150;2023-12-04T07:23:24;3;3;
49064;PMS5003;34876;51.464;-0.150;2023-12-04T07:25:54;4;4;
49064;PMS5003;34876;51.464;-0.150;2023-12-04T07:28:23;2;2;
49064;PMS5003;34876;51.464;-0.150;2023-12-04T07:30:54;2;2;
49064;PMS5003;34876;51.464;-0.150;2023-12-04T07:33:24;3;3;
49064;PMS5003;34876;51.464;-0.150;2023-12-04T07:35:53;3;3;
49064;PMS5003;34876;51.464;-0.150;2023-12-04T07:38:23;2;2;
49064;PMS5003;34876;51.464;-0.150;2023-12-04T07:40:52;1;1;
49064;PMS5003;34876;51.464;-0.150;2023-12-04T07:43:21;1;1;
49064;PMS5003;34876;51.464;-0.150;2023-12-04T07:45:51;3;2;
49064;PMS5003;34876;51.464;-0.150;2023-12-04T07:48:20;2;2;
49064;PMS5003;34876;51.464;-0.150;2023-12-04T07:50:50;2;2;
49064;PMS5003;34876;51.464;-0.150;2023-12-04T07:53:19;2;2;
49064;PMS5003;34876;51.464;-0.150;2023-12-04T07:55:49;4;4;
49064;PMS5003;34876;51.464;-0.150;2023-12-04T07:58:18;1;1;
49064;PMS5003;34876;51.464;-0.150;2023-12-04T08:00:47;2;2;
49064;PMS5003;34876;51.464;-0.150;2023-12-04T08:03:17;3;2;
49064;PMS5003;34876;51.464;-0.150;2023-12-04T08:05:46;2;2;
49064;PMS5003;34876;51.464;-0.150;2023-12-04T08:08:15;4;2;
49064;PMS5003;34876;51.464;-0.150;2023-12-04T08:10:45;4;1;
49064;PMS5003;34876;51.464;-0.150;2023-12-04T08:13:14;2;2;
49064;PMS5003;34876;51.464;-0.150;2023-12-04T08:15:43;3;3;
49064;PMS5003;34876;51.464;-0.150;2023-12-04T08:18:12;1;1;
49064;PMS5003;34876;51.464;-0.150;2023-12-04T08:20:41;2;2;
49064;PMS5003;34876;51.464;-0.150;2023-12-04T08:23:11;4;2;
49064;PMS5003;34876;51.464;-0.150;2023-12-04T08:25:41;5;5;
49064;PMS5003;34876;51.464;-0.150;2023-12-04T08:28:10;4;3;
49064;PMS5003;34876;51.464;-0.150;2023-12-04T08:30:39;2;2;
49064;PMS5003;34876;51.464;-0.150;2023-12-04T08:33:09;1;1;
49064;PMS5003;34876;51.464;-0.150;2023-12-04T08:35:40;2;2;
49064;PMS5003;34876;51.464;-0.150;2023-12-04T08:38:09;2;2;
49064;PMS5003;34876;51.464;-0.150;2023-12-04T08:40:39;1;1;
49064;PMS5003;34876;51.464;-0.150;2023-12-04T08:43:08;2;1;
49064;PMS5003;34876;51.464;-0.150;2023-12-04T08:45:38;0;0;
49064;PMS5003;34876;51.464;-0.150;2023-12-04T08:48:07;2;2;
49064;PMS5003;34876;51.464;-0.150;2023-12-04T08:50:36;2;2;
49064;PMS5003;34876;51.464;-0.150;2023-12-04T08:53:05;1;1;
49064;PMS5003;34876;51.464;-0.150;2023-12-04T08:55:35;2;2;
49064;PMS5003;34876;51.464;-0.150;2023-12-04T08:58:03;3;3;
49064;PMS5003;34876;51.464;-0.150;2023-12-04T09:00:32;2;2;
49064;PMS5003;34876;51.464;-0.150;2023-12-04T09:03:02;1;1;
49064;PMS5003;34876;51.464;-0.150;2023-12-04T09:05:31;2;2;
49064;PMS5003;34876;51.464;-0.150;2023-12-04T09:08:01;3;3;
49064;PMS5003;34876;51.464;-0.150;2023-12-04T09:10:30;4;2;
49064;PMS5003;34876;51.464;-0.150;2023-12-04T09:12:59;3;2;
49064;PMS5003;34876;51.464;-0.150;2023-12-04T09:15:29;3;2;
49064;PMS5003;34876;51.464;-0.150;2023-12-04T09:17:58;3;3;
49064;PMS5003;34876;51.464;-0.150;2023-12-04T09:20:28;2;1;
49064;PMS5003;34876;51.464;-0.150;2023-12-04T09:22:57;1;1;
49064;PMS5003;34876;51.464;-0.150;2023-12-04T09:25:26;2;2;
49064;PMS5003;34876;51.464;-0.150;2023-12-04T09:27:55;3;1;
49064;PMS5003;34876;51.464;-0.150;2023-12-04T09:30:23;1;1;
49064;PMS5003;34876;51.464;-0.150;2023-12-04T09:32:52;1;1;
49064;PMS5003;34876;51.464;-0.150;2023-12-04T09:35:21;3;3;
49064;PMS5003;34876;51.464;-0.150;2023-12-04T09:37:50;1;1;
49064;PMS5003;34876;51.464;-0.150;2023-12-04T09:40:20;3;3;
49064;PMS5003;34876;51.464;-0.150;2023-12-04T09:42:49;1;1;
49064;PMS5003;34876;51.464;-0.150;2023-12-04T09:45:19;2;2;
49064;PMS5003;34876;51.464;-0.150;2023-12-04T09:47:49;0;0;
49064;PMS5003;34876;51.464;-0.150;2023-12-04T09:50:19;3;1;
49064;PMS5003;34876;51.464;-0.150;2023-12-04T09:52:49;1;1;
49064;PMS5003;34876;51.464;-0.150;2023-12-04T09:55:20;1;1;
49064;PMS5003;34876;51.464;-0.150;2023-12-04T09:57:49;2;2;
49064;PMS5003;34876;51.464;-0.150;2023-12-04T10:00:18;2;2;
49064;PMS5003;34876;51.464;-0.150;2023-12-04T10:02:49;2;2;
49064;PMS5003;34876;51.464;-0.150;2023-12-04T10:05:20;3;3;
49064;PMS5003;34876;51.464;-0.150;2023-12-04T10:07:50;2;2;
49064;PMS5003;34876;51.464;-0.150;2023-12-04T10:10:20;2;2;
49064;PMS5003;34876;51.464;-0.150;2023-12-04T10:12:49;3;2;
49064;PMS5003;34876;51.464;-0.150;2023-12-04T10:15:20;2;2;
49064;PMS5003;34876;51.464;-0.150;2023-12-04T10:17:50;2;2;
49064;PMS5003;34876;51.464;-0.150;2023-12-04T10:20:20;1;1;
49064;PMS5003;34876;51.464;-0.150;2023-12-04T10:22:53;2;2;
49064;PMS5003;34876;51.464;-0.150;2023-12-04T10:25:24;1;1;
49064;PMS5003;34876;51.464;-0.150;2023-12-04T10:27:55;2;2;
49064;PMS5003;34876;51.464;-0.150;2023-12-04T10:30:36;2;2;
49064;PMS5003;34876;51.464;-0.150;2023-12-04T10:33:06;3;1;
49064;PMS5003;34876;51.464;-0.150;2023-12-04T10:35:37;1;1;
49064;PMS5003;34876;51.464;-0.150;2023-12-04T10:38:07;2;2;
49064;PMS5003;34876;51.464;-0.150;2023-12-04T10:40:37;3;3;
49064;PMS5003;34876;51.464;-0.150;2023-12-04T10:43:10;2;0;
49064;PMS5003;34876;51.464;-0.150;2023-12-04T10:45:42;2;2;
49064;PMS5003;34876;51.464;-0.150;2023-12-04T10:48:13;2;2;
49064;PMS5003;34876;51.464;-0.150;2023-12-04T10:50:44;1;1;
49064;PMS5003;34876;51.464;-0.150;2023-12-04T10:53:15;1;1;
49064;PMS5003;34876;51.464;-0.150;2023-12-04T10:55:46;2;2;
49064;PMS5003;34876;51.464;-0.150;2023-12-04T10:58:22;1;1;
49064;PMS5003;34876;51.464;-0.150;2023-12-04T11:00:55;4;2;
49064;PMS5003;34876;51.464;-0.150;2023-12-04T11:03:28;2;2;
49064;PMS5003;34876;51.464;-0.150;2023-12-04T11:06:03;1;0;
49064;PMS5003;34876;51.464;-0.150;2023-12-04T11:08:37;3;2;
49064;PMS5003;34876;51.464;-0.150;2023-12-04T11:11:15;1;1;
49064;PMS5003;34876;51.464;-0.150;2023-12-04T11:13:50;3;2;
49064;PMS5003;34876;51.464;-0.150;2023-12-04T11:16:26;1;1;
49064;PMS5003;34876;51.464;-0.150;2023-12-04T11:19:03;2;2;
49064;PMS5003;34876;51.464;-0.150;2023-12-04T11:21:42;2;2;
49064;PMS5003;34876;51.464;-0.150;2023-12-04T11:24:15;1;1;
49064;PMS5003;34876;51.464;-0.150;2023-12-04T11:26:46;1;1;
49064;PMS5003;34876;51.464;-0.150;2023-12-04T11:29:16;2;2;
49064;PMS5003;34876;51.464;-0.150;2023-12-04T11:31:46;2;2;
49064;PMS5003;34876;51.464;-0.150;2023-12-04T11:34:16;2;2;
49064;PMS5003;34876;51.464;-0.150;2023-12-04T11:36:46;0;0;
49064;PMS5003;34876;51.464;-0.150;2023-12-04T11:39:16;2;2;
49064;PMS5003;34876;51.464;-0.150;2023-12-04T11:41:47;1;1;
49064;PMS5003;34876;51.464;-0.150;2023-12-04T11:44:18;3;3;
49064;PMS5003;34876;51.464;-0.150;2023-12-04T11:46:56;1;1;
49064;PMS5003;34876;51.464;-0.150;2023-12-04T11:49:37;2;2;
49064;PMS5003;34876;51.464;-0.150;2023-12-04T11:52:07;2;2;
49064;PMS5003;34876;51.464;-0.150;2023-12-04T11:55:09;2;2;
49064;PMS5003;34876;51.464;-0.150;2023-12-04T11:57:39;1;1;
49064;PMS5003;34876;51.464;-0.150;2023-12-04T12:00:10;2;2;
49064;PMS5003;34876;51.464;-0.150;2023-12-04T12:03:08;2;2;
49064;PMS5003;34876;51.464;-0.150;2023-12-04T12:05:38;2;2;
49064;PMS5003;34876;51.464;-0.150;2023-12-04T12:08:08;2;2;
49064;PMS5003;34876;51.464;-0.150;2023-12-04T12:10:38;3;3;
49064;PMS5003;34876;51.464;-0.150;2023-12-04T12:13:07;2;2;
49064;PMS5003;34876;51.464;-0.150;2023-12-04T12:15:38;1;1;
49064;PMS5003;34876;51.464;-0.150;2023-12-04T12:18:08;2;2;
49064;PMS5003;34876;51.464;-0.150;2023-12-04T12:20:37;2;2;
49064;PMS5003;34876;51.464;-0.150;2023-12-04T12:23:08;1;1;
49064;PMS5003;34876;51.464;-0.150;2023-12-04T12:25:41;2;2;
49064;PMS5003;34876;51.464;-0.150;2023-12-04T12:28:15;1;1;
49064;PMS5003;34876;51.464;-0.150;2023-12-04T12:30:46;1;1;
49064;PMS5003;34876;51.464;-0.150;2023-12-04T12:33:15;2;2;
49064;PMS5003;34876;51.464;-0.150;2023-12-04T12:35:45;6;4;
49064;PMS5003;34876;51.464;-0.150;2023-12-04T12:38:16;0;0;
49064;PMS5003;34876;51.464;-0.150;2023-12-04T12:40:45;2;2;
49064;PMS5003;34876;51.464;-0.150;2023-12-04T12:43:14;3;3;
49064;PMS5003;34876;51.464;-0.150;2023-12-04T12:45:44;1;1;
49064;PMS5003;34876;51.464;-0.150;2023-12-04T12:48:16;2;2;
49064;PMS5003;34876;51.464;-0.150;2023-12-04T12:50:46;4;2;
49064;PMS5003;34876;51.464;-0.150;2023-12-04T12:53:17;2;2;
49064;PMS5003;34876;51.464;-0.150;2023-12-04T12:55:47;2;2;
49064;PMS5003;34876;51.464;-0.150;2023-12-04T12:58:17;2;2;
49064;PMS5003;34876;51.464;-0.150;2023-12-04T13:00:46;1;1;
49064;PMS5003;34876;51.464;-0.150;2023-12-04T13:03:16;1;1;
49064;PMS5003;34876;51.464;-0.150;2023-12-04T13:05:45;1;1;
49064;PMS5003;34876;51.464;-0.150;2023-12-04T13:08:15;1;1;
49064;PMS5003;34876;51.464;-0.150;2023-12-04T13:10:44;1;1;
49064;PMS5003;34876;51.464;-0.150;2023-12-04T13:13:13;2;2;
49064;PMS5003;34876;51.464;-0.150;2023-12-04T13:15:43;3;3;
49064;PMS5003;34876;51.464;-0.150;2023-12-04T13:18:12;1;1;
49064;PMS5003;34876;51.464;-0.150;2023-12-04T13:20:42;2;2;
49064;PMS5003;34876;51.464;-0.150;2023-12-04T13:23:11;2;2;
49064;PMS5003;34876;51.464;-0.150;2023-12-04T13:25:40;1;1;
49064;PMS5003;34876;51.464;-0.150;2023-12-04T13:28:10;1;1;
49064;PMS5003;34876;51.464;-0.150;2023-12-04T13:30:39;4;3;
49064;PMS5003;34876;51.464;-0.150;2023-12-04T13:33:07;2;2;
49064;PMS5003;34876;51.464;-0.150;2023-12-04T13:35:37;3;1;
49064;PMS5003;34876;51.464;-0.150;2023-12-04T13:38:07;1;0;
49064;PMS5003;34876;51.464;-0.150;2023-12-04T13:40:35;1;1;
49064;PMS5003;34876;51.464;-0.150;2023-12-04T13:43:05;1;1;
49064;PMS5003;34876;51.464;-0.150;2023-12-04T13:45:34;3;3;
49064;PMS5003;34876;51.464;-0.150;2023-12-04T13:48:04;2;2;
49064;PMS5003;34876;51.464;-0.150;2023-12-04T13:50:33;2;2;
49064;PMS5003;34876;51.464;-0.150;2023-12-04T13:53:07;2;2;
49064;PMS5003;34876;51.464;-0.150;2023-12-04T13:55:36;2;2;
49064;PMS5003;34876;51.464;-0.150;2023-12-04T13:58:06;2;2;
49064;PMS5003;34876;51.464;-0.150;2023-12-04T14:00:36;2;1;
49064;PMS5003;34876;51.464;-0.150;2023-12-04T14:03:05;2;2;
49064;PMS5003;34876;51.464;-0.150;2023-12-04T14:05:35;1;1;
49064;PMS5003;34876;51.464;-0.150;2023-12-04T14:08:04;1;1;
49064;PMS5003;34876;51.464;-0.150;2023-12-04T14:10:32;3;1;
49064;PMS5003;34876;51.464;-0.150;2023-12-04T14:13:02;3;3;
49064;PMS5003;34876;51.464;-0.150;2023-12-04T14:15:31;1;1;
49064;PMS5003;34876;51.464;-0.150;2023-12-04T14:18:00;0;0;
49064;PMS5003;34876;51.464;-0.150;2023-12-04T14:20:30;0;0;
49064;PMS5003;34876;51.464;-0.150;2023-12-04T14:22:59;1;1;
49064;PMS5003;34876;51.464;-0.150;2023-12-04T14:25:28;2;2;
49064;PMS5003;34876;51.464;-0.150;2023-12-04T14:27:58;3;2;
49064;PMS5003;34876;51.464;-0.150;2023-12-04T14:30:27;2;2;
49064;PMS5003;34876;51.464;-0.150;2023-12-04T14:32:56;1;1;
49064;PMS5003;34876;51.464;-0.150;2023-12-04T14:35:26;2;2;
49064;PMS5003;34876;51.464;-0.150;2023-12-04T14:37:56;0;0;
49064;PMS5003;34876;51.464;-0.150;2023-12-04T14:40:25;2;2;
49064;PMS5003;34876;51.464;-0.150;2023-12-04T14:42:54;1;1;
49064;PMS5003;34876;51.464;-0.150;2023-12-04T14:45:23;3;1;
49064;PMS5003;34876;51.464;-0.150;2023-12-04T14:47:52;4;4;
49064;PMS5003;34876;51.464;-0.150;2023-12-04T14:50:20;1;1;
49064;PMS5003;34876;51.464;-0.150;2023-12-04T14:52:51;3;2;
49064;PMS5003;34876;51.464;-0.150;2023-12-04T14:55:20;1;1;
49064;PMS5003;34876;51.464;-0.150;2023-12-04T14:57:51;1;1;
49064;PMS5003;34876;51.464;-0.150;2023-12-04T15:00:19;1;1;
49064;PMS5003;34876;51.464;-0.150;2023-12-04T15:02:48;1;1;
49064;PMS5003;34876;51.464;-0.150;2023-12-04T15:05:18;3;2;
49064;PMS5003;34876;51.464;-0.150;2023-12-04T15:07:48;1;1;
49064;PMS5003;34876;51.464;-0.150;2023-12-04T15:10:19;1;1;
49064;PMS5003;34876;51.464;-0.150;2023-12-04T15:12:48;1;1;
49064;PMS5003;34876;51.464;-0.150;2023-12-04T15:15:18;2;2;
49064;PMS5003;34876;51.464;-0.150;2023-12-04T15:17:49;2;1;
49064;PMS5003;34876;51.464;-0.150;2023-12-04T15:20:19;2;1;
49064;PMS5003;34876;51.464;-0.150;2023-12-04T15:22:48;2;2;
49064;PMS5003;34876;51.464;-0.150;2023-12-04T15:25:18;1;1;
49064;PMS5003;34876;51.464;-0.150;2023-12-04T15:27:49;1;0;
49064;PMS5003;34876;51.464;-0.150;2023-12-04T15:30:19;2;2;
49064;PMS5003;34876;51.464;-0.150;2023-12-04T15:32:48;1;1;
49064;PMS5003;34876;51.464;-0.150;2023-12-04T15:35:16;1;1;
49064;PMS5003;34876;51.464;-0.150;2023-12-04T15:37:45;2;2;
49064;PMS5003;34876;51.464;-0.150;2023-12-04T15:40:15;2;2;
49064;PMS5003;34876;51.464;-0.150;2023-12-04T15:42:45;0;0;
49064;PMS5003;34876;51.464;-0.150;2023-12-04T15:45:14;1;1;
49064;PMS5003;34876;51.464;-0.150;2023-12-04T15:47:42;0;0;
49064;PMS5003;34876;51.464;-0.150;2023-12-04T15:50:11;3;2;
49064;PMS5003;34876;51.464;-0.150;2023-12-04T15:52:44;3;2;
49064;PMS5003;34876;51.464;-0.150;2023-12-04T15:55:15;2;2;
49064;PMS5003;34876;51.464;-0.150;2023-12-04T15:57:43;1;1;
49064;PMS5003;34876;51.464;-0.150;2023-12-04T16:00:14;1;1;
49064;PMS5003;34876;51.464;-0.150;2023-12-04T16:02:43;1;1;
49064;PMS5003;34876;51.464;-0.150;2023-12-04T16:05:12;1;1;
49064;PMS5003;34876;51.464;-0.150;2023-12-04T16:07:42;0;0;
49064;PMS5003;34876;51.464;-0.150;2023-12-04T16:10:11;1;1;
49064;PMS5003;34876;51.464;-0.150;2023-12-04T16:12:41;2;2;
49064;PMS5003;34876;51.464;-0.150;2023-12-04T16:15:14;2;2;
49064;PMS5003;34876;51.464;-0.150;2023-12-04T16:17:44;1;1;
49064;PMS5003;34876;51.464;-0.150;2023-12-04T16:20:13;2;2;
49064;PMS5003;34876;51.464;-0.150;2023-12-04T16:22:42;1;1;
49064;PMS5003;34876;51.464;-0.150;2023-12-04T16:25:12;1;1;
49064;PMS5003;34876;51.464;-0.150;2023-12-04T16:27:41;2;2;
49064;PMS5003;34876;51.464;-0.150;2023-12-04T16:30:11;3;2;
49064;PMS5003;34876;51.464;-0.150;2023-12-04T16:32:41;1;1;
49064;PMS5003;34876;51.464;-0.150;2023-12-04T16:35:11;0;0;
49064;PMS5003;34876;51.464;-0.150;2023-12-04T16:37:40;3;1;
49064;PMS5003;34876;51.464;-0.150;2023-12-04T16:40:10;1;1;
49064;PMS5003;34876;51.464;-0.150;2023-12-04T16:42:40;0;0;
49064;PMS5003;34876;51.464;-0.150;2023-12-04T16:45:10;1;1;
49064;PMS5003;34876;51.464;-0.150;2023-12-04T16:47:44;1;1;
49064;PMS5003;34876;51.464;-0.150;2023-12-04T16:50:15;1;1;
49064;PMS5003;34876;51.464;-0.150;2023-12-04T16:52:45;2;1;
49064;PMS5003;34876;51.464;-0.150;2023-12-04T16:55:14;1;1;